sensor_id;sensor_type;location;lat;lon;timestamp;pressure;altitude;pressure_sealevel;temperature;humidity
74594;BME280;63097;51.872;4.460;2023-08-07T00:01:17;101608.00;;;14.84;75.60
74594;BME280;63097;51.872;4.460;2023-08-07T00:03:43;101614.38;;;14.80;76.43
74594;BME280;63097;51.872;4.460;2023-08-07T00:06:08;101610.88;;;14.89;75.92
74594;BME280;63097;51.872;4.460;2023-08-07T00:08:33;101609.09;;;14.83;77.07
74594;BME280;63097;51.872;4.460;2023-08-07T00:11:08;101613.34;;;14.86;78.00
74594;BME280;63097;51.872;4.460;2023-08-07T00:13:33;101619.50;;;14.83;79.12
74594;BME280;63097;51.872;4.460;2023-08-07T00:15:59;101616.28;;;14.74;80.86
74594;BME280;63097;51.872;4.460;2023-08-07T00:18:24;101613.97;;;14.66;80.19
74594;BME280;63097;51.872;4.460;2023-08-07T00:20:49;101608.22;;;14.56;79.19
74594;BME280;63097;51.872;4.460;2023-08-07T00:23:15;101613.06;;;14.61;77.82
74594;BME280;63097;51.872;4.460;2023-08-07T00:25:40;101612.41;;;14.54;79.86
74594;BME280;63097;51.872;4.460;2023-08-07T00:28:05;101618.25;;;14.52;79.62
74594;BME280;63097;51.872;4.460;2023-08-07T00:30:31;101615.97;;;14.49;81.32
74594;BME280;63097;51.872;4.460;2023-08-07T00:32:56;101618.44;;;14.46;82.66
74594;BME280;63097;51.872;4.460;2023-08-07T00:35:21;101611.22;;;14.28;84.75
74594;BME280;63097;51.872;4.460;2023-08-07T00:37:47;101613.22;;;14.16;86.08
74594;BME280;63097;51.872;4.460;2023-08-07T00:40:12;101609.59;;;14.15;85.10
74594;BME280;63097;51.872;4.460;2023-08-07T00:42:37;101622.88;;;14.25;83.64
74594;BME280;63097;51.872;4.460;2023-08-07T00:45:03;101605.34;;;14.30;83.30
74594;BME280;63097;51.872;4.460;2023-08-07T00:47:28;101619.16;;;14.36;83.62
74594;BME280;63097;51.872;4.460;2023-08-07T00:49:55;101606.06;;;14.42;80.59
74594;BME280;63097;51.872;4.460;2023-08-07T00:52:21;101626.72;;;14.57;78.80
74594;BME280;63097;51.872;4.460;2023-08-07T00:54:46;101619.56;;;14.66;78.25
74594;BME280;63097;51.872;4.460;2023-08-07T00:57:12;101619.66;;;14.76;76.68
74594;BME280;63097;51.872;4.460;2023-08-07T00:59:39;101624.81;;;14.84;74.68
74594;BME280;63097;51.872;4.460;2023-08-07T01:02:05;101622.41;;;14.71;75.94
74594;BME280;63097;51.872;4.460;2023-08-07T01:04:31;101629.16;;;14.70;75.94
74594;BME280;63097;51.872;4.460;2023-08-07T01:06:56;101632.06;;;14.80;74.62
74594;BME280;63097;51.872;4.460;2023-08-07T01:09:21;101631.19;;;14.80;76.86
74594;BME280;63097;51.872;4.460;2023-08-07T01:12:40;101622.78;;;14.80;75.60
74594;BME280;63097;51.872;4.460;2023-08-07T01:15:07;101630.22;;;14.91;75.55
74594;BME280;63097;51.872;4.460;2023-08-07T01:17:34;101637.38;;;14.82;76.10
74594;BME280;63097;51.872;4.460;2023-08-07T01:20:00;101630.16;;;14.86;77.22
74594;BME280;63097;51.872;4.460;2023-08-07T01:22:25;101635.66;;;14.76;76.82
74594;BME280;63097;51.872;4.460;2023-08-07T01:24:51;101634.53;;;14.77;76.20
74594;BME280;63097;51.872;4.460;2023-08-07T01:27:46;101633.81;;;14.86;74.27
74594;BME280;63097;51.872;4.460;2023-08-07T01:30:30;101634.81;;;14.75;73.95
74594;BME280;63097;51.872;4.460;2023-08-07T01:35:33;101631.16;;;14.75;74.60
74594;BME280;63097;51.872;4.460;2023-08-07T01:37:59;101644.06;;;14.76;74.79
74594;BME280;63097;51.872;4.460;2023-08-07T01:40:27;101640.25;;;14.65;75.17
74594;BME280;63097;51.872;4.460;2023-08-07T01:42:52;101629.91;;;14.66;75.78
74594;BME280;63097;51.872;4.460;2023-08-07T01:45:25;101635.88;;;14.74;74.52
74594;BME280;63097;51.872;4.460;2023-08-07T01:47:51;101634.22;;;14.73;75.21
74594;BME280;63097;51.872;4.460;2023-08-07T01:50:16;101631.09;;;14.70;75.45
74594;BME280;63097;51.872;4.460;2023-08-07T01:52:42;101633.94;;;14.75;75.16
74594;BME280;63097;51.872;4.460;2023-08-07T01:55:07;101622.78;;;14.80;75.30
74594;BME280;63097;51.872;4.460;2023-08-07T01:57:33;101633.69;;;14.76;75.47
74594;BME280;63097;51.872;4.460;2023-08-07T01:59:58;101634.81;;;14.75;75.12
74594;BME280;63097;51.872;4.460;2023-08-07T02:02:23;101642.06;;;14.76;74.80
74594;BME280;63097;51.872;4.460;2023-08-07T02:04:49;101642.34;;;14.75;74.69
74594;BME280;63097;51.872;4.460;2023-08-07T02:07:14;101639.28;;;14.76;75.23
74594;BME280;63097;51.872;4.460;2023-08-07T02:09:39;101634.53;;;14.77;75.30
74594;BME280;63097;51.872;4.460;2023-08-07T02:12:05;101644.28;;;14.74;75.79
74594;BME280;63097;51.872;4.460;2023-08-07T02:14:30;101633.19;;;14.79;75.41
74594;BME280;63097;51.872;4.460;2023-08-07T02:16:56;101639.81;;;14.73;76.07
74594;BME280;63097;51.872;4.460;2023-08-07T02:19:21;101640.47;;;14.80;75.71
74594;BME280;63097;51.872;4.460;2023-08-07T02:21:46;101645.47;;;14.78;75.54
74594;BME280;63097;51.872;4.460;2023-08-07T02:24:11;101642.03;;;14.71;76.18
74594;BME280;63097;51.872;4.460;2023-08-07T02:26:37;101647.69;;;14.76;75.94
74594;BME280;63097;51.872;4.460;2023-08-07T02:29:02;101644.38;;;14.79;74.82
74594;BME280;63097;51.872;4.460;2023-08-07T02:31:27;101647.19;;;14.79;74.63
74594;BME280;63097;51.872;4.460;2023-08-07T02:33:53;101638.09;;;14.72;74.20
74594;BME280;63097;51.872;4.460;2023-08-07T02:36:18;101647.09;;;14.74;74.09
74594;BME280;63097;51.872;4.460;2023-08-07T02:38:43;101649.13;;;14.79;74.12
74594;BME280;63097;51.872;4.460;2023-08-07T02:41:08;101644.50;;;14.68;75.83
74594;BME280;63097;51.872;4.460;2023-08-07T02:43:34;101656.28;;;14.70;75.13
74594;BME280;63097;51.872;4.460;2023-08-07T02:45:59;101646.00;;;14.75;74.97
74594;BME280;63097;51.872;4.460;2023-08-07T02:48:24;101644.81;;;14.71;75.55
74594;BME280;63097;51.872;4.460;2023-08-07T02:50:50;101638.19;;;14.77;75.45
74594;BME280;63097;51.872;4.460;2023-08-07T02:53:15;101632.91;;;14.81;75.47
74594;BME280;63097;51.872;4.460;2023-08-07T02:55:43;101646.44;;;14.89;74.46
74594;BME280;63097;51.872;4.460;2023-08-07T02:58:08;101636.13;;;14.94;74.20
74594;BME280;63097;51.872;4.460;2023-08-07T03:00:34;101641.50;;;14.96;74.75
74594;BME280;63097;51.872;4.460;2023-08-07T03:03:00;101652.31;;;14.87;76.17
74594;BME280;63097;51.872;4.460;2023-08-07T03:05:25;101649.81;;;14.91;76.25
74594;BME280;63097;51.872;4.460;2023-08-07T03:07:50;101652.03;;;14.89;76.41
74594;BME280;63097;51.872;4.460;2023-08-07T03:10:16;101652.56;;;14.86;76.76
74594;BME280;63097;51.872;4.460;2023-08-07T03:12:41;101658.28;;;14.74;76.43
74594;BME280;63097;51.872;4.460;2023-08-07T03:15:06;101661.41;;;14.56;78.87
74594;BME280;63097;51.872;4.460;2023-08-07T03:17:32;101654.44;;;14.37;80.09
74594;BME280;63097;51.872;4.460;2023-08-07T03:19:57;101649.69;;;14.21;80.92
74594;BME280;63097;51.872;4.460;2023-08-07T03:22:22;101648.00;;;14.20;79.99
74594;BME280;63097;51.872;4.460;2023-08-07T03:24:48;101642.13;;;14.38;79.22
74594;BME280;63097;51.872;4.460;2023-08-07T03:27:14;101654.13;;;14.34;79.69
74594;BME280;63097;51.872;4.460;2023-08-07T03:29:39;101659.53;;;14.40;79.02
74594;BME280;63097;51.872;4.460;2023-08-07T03:32:04;101671.19;;;14.54;79.88
74594;BME280;63097;51.872;4.460;2023-08-07T03:34:30;101675.72;;;14.22;87.30
74594;BME280;63097;51.872;4.460;2023-08-07T03:36:55;101686.50;;;13.80;93.00
74594;BME280;63097;51.872;4.460;2023-08-07T03:39:20;101673.97;;;13.49;96.26
74594;BME280;63097;51.872;4.460;2023-08-07T03:41:46;101667.75;;;13.31;98.37
74594;BME280;63097;51.872;4.460;2023-08-07T03:44:11;101662.53;;;13.23;98.25
74594;BME280;63097;51.872;4.460;2023-08-07T03:46:36;101678.66;;;13.32;95.68
74594;BME280;63097;51.872;4.460;2023-08-07T03:49:01;101689.50;;;13.29;96.60
74594;BME280;63097;51.872;4.460;2023-08-07T03:51:27;101677.13;;;13.25;97.83
74594;BME280;63097;51.872;4.460;2023-08-07T03:53:52;101668.47;;;13.26;97.33
74594;BME280;63097;51.872;4.460;2023-08-07T03:56:17;101667.19;;;13.17;96.83
74594;BME280;63097;51.872;4.460;2023-08-07T03:58:43;101674.75;;;13.17;96.98
74594;BME280;63097;51.872;4.460;2023-08-07T04:01:08;101679.13;;;13.13;97.63
74594;BME280;63097;51.872;4.460;2023-08-07T04:03:33;101663.91;;;13.20;96.68
74594;BME280;63097;51.872;4.460;2023-08-07T04:05:59;101664.50;;;13.22;97.66
74594;BME280;63097;51.872;4.460;2023-08-07T04:08:24;101667.78;;;13.19;98.73
74594;BME280;63097;51.872;4.460;2023-08-07T04:11:05;101666.53;;;13.27;98.01
74594;BME280;63097;51.872;4.460;2023-08-07T04:13:31;101653.78;;;13.31;98.50
74594;BME280;63097;51.872;4.460;2023-08-07T04:15:57;101657.63;;;13.30;98.86
74594;BME280;63097;51.872;4.460;2023-08-07T04:18:22;101658.34;;;13.37;97.73
74594;BME280;63097;51.872;4.460;2023-08-07T04:20:52;101662.84;;;13.54;97.39
74594;BME280;63097;51.872;4.460;2023-08-07T04:23:18;101660.41;;;13.58;96.65
74594;BME280;63097;51.872;4.460;2023-08-07T04:25:44;101664.47;;;13.67;95.28
74594;BME280;63097;51.872;4.460;2023-08-07T04:28:09;101670.66;;;13.69;94.60
74594;BME280;63097;51.872;4.460;2023-08-07T04:30:34;101659.47;;;13.69;94.75
74594;BME280;63097;51.872;4.460;2023-08-07T04:33:00;101672.59;;;13.85;91.35
74594;BME280;63097;51.872;4.460;2023-08-07T04:35:25;101664.81;;;13.87;89.22
74594;BME280;63097;51.872;4.460;2023-08-07T04:37:50;101674.47;;;13.96;87.16
74594;BME280;63097;51.872;4.460;2023-08-07T04:40:16;101680.06;;;13.96;86.80
74594;BME280;63097;51.872;4.460;2023-08-07T04:42:41;101689.78;;;14.10;84.50
74594;BME280;63097;51.872;4.460;2023-08-07T04:45:06;101677.53;;;14.11;84.86
74594;BME280;63097;51.872;4.460;2023-08-07T04:47:32;101684.97;;;14.22;82.34
74594;BME280;63097;51.872;4.460;2023-08-07T04:49:57;101687.25;;;14.25;82.50
74594;BME280;63097;51.872;4.460;2023-08-07T04:52:22;101681.31;;;14.22;82.78
74594;BME280;63097;51.872;4.460;2023-08-07T04:54:48;101683.34;;;14.26;82.40
74594;BME280;63097;51.872;4.460;2023-08-07T04:57:13;101689.38;;;14.18;82.12
74594;BME280;63097;51.872;4.460;2023-08-07T04:59:38;101685.38;;;14.14;81.39
74594;BME280;63097;51.872;4.460;2023-08-07T05:02:04;101690.72;;;14.15;80.51
74594;BME280;63097;51.872;4.460;2023-08-07T05:04:29;101703.88;;;14.15;80.96
74594;BME280;63097;51.872;4.460;2023-08-07T05:06:54;101701.44;;;14.19;79.63
74594;BME280;63097;51.872;4.460;2023-08-07T05:09:20;101696.94;;;14.34;79.32
74594;BME280;63097;51.872;4.460;2023-08-07T05:11:45;101694.22;;;14.39;79.71
74594;BME280;63097;51.872;4.460;2023-08-07T05:14:11;101700.56;;;14.51;78.65
74594;BME280;63097;51.872;4.460;2023-08-07T05:16:36;101699.00;;;14.60;77.94
74594;BME280;63097;51.872;4.460;2023-08-07T05:19:01;101699.38;;;14.69;76.32
74594;BME280;63097;51.872;4.460;2023-08-07T05:21:27;101696.69;;;14.74;75.87
74594;BME280;63097;51.872;4.460;2023-08-07T05:23:52;101712.56;;;14.68;77.06
74594;BME280;63097;51.872;4.460;2023-08-07T05:26:17;101709.44;;;14.65;77.83
74594;BME280;63097;51.872;4.460;2023-08-07T05:28:42;101706.03;;;14.63;78.62
74594;BME280;63097;51.872;4.460;2023-08-07T05:31:08;101710.34;;;14.70;77.07
74594;BME280;63097;51.872;4.460;2023-08-07T05:33:33;101710.34;;;14.70;75.82
74594;BME280;63097;51.872;4.460;2023-08-07T05:35:58;101711.13;;;14.66;76.45
74594;BME280;63097;51.872;4.460;2023-08-07T05:38:23;101702.50;;;14.72;75.53
74594;BME280;63097;51.872;4.460;2023-08-07T05:40:49;101706.00;;;14.79;75.46
74594;BME280;63097;51.872;4.460;2023-08-07T05:43:14;101712.31;;;14.91;75.35
74594;BME280;63097;51.872;4.460;2023-08-07T05:45:39;101708.47;;;14.97;74.83
74594;BME280;63097;51.872;4.460;2023-08-07T05:48:06;101713.00;;;15.03;73.74
74594;BME280;63097;51.872;4.460;2023-08-07T05:50:31;101715.00;;;15.03;73.71
74594;BME280;63097;51.872;4.460;2023-08-07T05:52:56;101716.06;;;15.02;73.84
74594;BME280;63097;51.872;4.460;2023-08-07T05:55:22;101728.47;;;15.06;74.03
74594;BME280;63097;51.872;4.460;2023-08-07T05:57:47;101724.63;;;15.12;75.29
74594;BME280;63097;51.872;4.460;2023-08-07T06:00:12;101731.91;;;15.13;75.34
74594;BME280;63097;51.872;4.460;2023-08-07T06:02:38;101729.97;;;15.13;75.22
74594;BME280;63097;51.872;4.460;2023-08-07T06:05:03;101736.75;;;15.18;73.56
74594;BME280;63097;51.872;4.460;2023-08-07T06:07:29;101726.31;;;15.13;73.88
74594;BME280;63097;51.872;4.460;2023-08-07T06:09:54;101732.31;;;15.00;74.67
74594;BME280;63097;51.872;4.460;2023-08-07T06:12:19;101739.34;;;15.02;74.65
74594;BME280;63097;51.872;4.460;2023-08-07T06:14:44;101742.22;;;15.07;75.27
74594;BME280;63097;51.872;4.460;2023-08-07T06:17:10;101739.09;;;15.04;75.28
74594;BME280;63097;51.872;4.460;2023-08-07T06:19:35;101751.41;;;15.03;75.41
74594;BME280;63097;51.872;4.460;2023-08-07T06:22:00;101742.34;;;15.18;74.73
74594;BME280;63097;51.872;4.460;2023-08-07T06:24:26;101745.81;;;15.25;73.95
74594;BME280;63097;51.872;4.460;2023-08-07T06:26:51;101748.78;;;15.40;72.63
74594;BME280;63097;51.872;4.460;2023-08-07T06:29:16;101746.69;;;15.52;71.28
74594;BME280;63097;51.872;4.460;2023-08-07T06:31:41;101738.72;;;15.65;72.56
74594;BME280;63097;51.872;4.460;2023-08-07T06:34:07;101750.53;;;15.67;72.31
74594;BME280;63097;51.872;4.460;2023-08-07T06:36:32;101745.56;;;15.74;71.59
74594;BME280;63097;51.872;4.460;2023-08-07T06:38:58;101744.22;;;15.82;71.26
74594;BME280;63097;51.872;4.460;2023-08-07T06:41:23;101756.13;;;15.94;69.41
74594;BME280;63097;51.872;4.460;2023-08-07T06:43:48;101754.16;;;15.94;69.73
74594;BME280;63097;51.872;4.460;2023-08-07T06:46:13;101756.13;;;15.94;68.29
74594;BME280;63097;51.872;4.460;2023-08-07T06:48:39;101761.84;;;16.04;68.52
74594;BME280;63097;51.872;4.460;2023-08-07T06:51:04;101777.06;;;16.13;67.92
74594;BME280;63097;51.872;4.460;2023-08-07T06:53:29;101778.56;;;16.21;67.45
74594;BME280;63097;51.872;4.460;2023-08-07T06:55:55;101767.13;;;16.32;68.67
74594;BME280;63097;51.872;4.460;2023-08-07T06:58:20;101779.22;;;16.38;65.89
74594;BME280;63097;51.872;4.460;2023-08-07T07:00:45;101777.59;;;16.42;66.54
74594;BME280;63097;51.872;4.460;2023-08-07T07:03:11;101789.47;;;16.49;65.55
74594;BME280;63097;51.872;4.460;2023-08-07T07:05:36;101784.75;;;16.54;65.70
74594;BME280;63097;51.872;4.460;2023-08-07T07:08:01;101783.13;;;16.63;65.26
74594;BME280;63097;51.872;4.460;2023-08-07T07:10:26;101782.91;;;16.70;65.14
74594;BME280;63097;51.872;4.460;2023-08-07T07:12:52;101787.69;;;16.74;64.90
74594;BME280;63097;51.872;4.460;2023-08-07T07:15:17;101777.84;;;16.72;65.55
74594;BME280;63097;51.872;4.460;2023-08-07T07:17:43;101785.66;;;16.65;65.10
74594;BME280;63097;51.872;4.460;2023-08-07T07:20:08;101781.78;;;16.76;64.01
74594;BME280;63097;51.872;4.460;2023-08-07T07:22:34;101789.34;;;16.70;63.62
74594;BME280;63097;51.872;4.460;2023-08-07T07:24:59;101781.22;;;16.74;64.31
74594;BME280;63097;51.872;4.460;2023-08-07T07:27:24;101803.00;;;16.93;63.92
74594;BME280;63097;51.872;4.460;2023-08-07T07:29:49;101792.25;;;16.85;62.49
74594;BME280;63097;51.872;4.460;2023-08-07T07:32:15;101794.31;;;17.00;62.75
74594;BME280;63097;51.872;4.460;2023-08-07T07:34:40;101795.84;;;17.18;60.66
74594;BME280;63097;51.872;4.460;2023-08-07T07:37:05;101800.78;;;16.95;61.78
74594;BME280;63097;51.872;4.460;2023-08-07T07:39:30;101799.81;;;16.80;62.41
74594;BME280;63097;51.872;4.460;2023-08-07T07:41:56;101815.72;;;16.64;61.67
74594;BME280;63097;51.872;4.460;2023-08-07T07:44:21;101802.63;;;16.80;61.45
74594;BME280;63097;51.872;4.460;2023-08-07T07:46:46;101804.06;;;16.82;61.83
74594;BME280;63097;51.872;4.460;2023-08-07T07:49:12;101804.47;;;17.01;61.73
74594;BME280;63097;51.872;4.460;2023-08-07T07:51:37;101807.09;;;17.18;60.54
74594;BME280;63097;51.872;4.460;2023-08-07T07:54:02;101822.34;;;17.37;60.94
74594;BME280;63097;51.872;4.460;2023-08-07T07:56:27;101806.56;;;17.31;61.91
74594;BME280;63097;51.872;4.460;2023-08-07T07:58:53;101809.94;;;17.33;60.95
74594;BME280;63097;51.872;4.460;2023-08-07T08:01:18;101815.47;;;17.64;60.02
74594;BME280;63097;51.872;4.460;2023-08-07T08:03:43;101815.19;;;17.71;59.20
74594;BME280;63097;51.872;4.460;2023-08-07T08:06:11;101821.19;;;18.04;59.91
74594;BME280;63097;51.872;4.460;2023-08-07T08:08:36;101835.06;;;18.41;59.11
74594;BME280;63097;51.872;4.460;2023-08-07T08:11:01;101831.09;;;18.37;58.73
74594;BME280;63097;51.872;4.460;2023-08-07T08:13:27;101830.50;;;18.15;58.79
74594;BME280;63097;51.872;4.460;2023-08-07T08:15:52;101831.88;;;17.92;59.24
74594;BME280;63097;51.872;4.460;2023-08-07T08:18:17;101838.38;;;18.13;56.89
74594;BME280;63097;51.872;4.460;2023-08-07T08:20:42;101843.72;;;18.09;57.25
74594;BME280;63097;51.872;4.460;2023-08-07T08:23:08;101835.03;;;18.36;55.81
74594;BME280;63097;51.872;4.460;2023-08-07T08:25:33;101848.56;;;18.29;55.81
74594;BME280;63097;51.872;4.460;2023-08-07T08:27:59;101837.06;;;18.51;56.97
74594;BME280;63097;51.872;4.460;2023-08-07T08:30:24;101857.78;;;18.09;56.26
74594;BME280;63097;51.872;4.460;2023-08-07T08:32:49;101856.31;;;17.77;57.33
74594;BME280;63097;51.872;4.460;2023-08-07T08:35:14;101864.81;;;17.92;56.46
74594;BME280;63097;51.872;4.460;2023-08-07T08:37:40;101859.78;;;18.24;55.31
74594;BME280;63097;51.872;4.460;2023-08-07T08:40:06;101860.16;;;18.58;55.52
74594;BME280;63097;51.872;4.460;2023-08-07T08:42:32;101859.88;;;18.69;54.56
74594;BME280;63097;51.872;4.460;2023-08-07T08:44:58;101874.53;;;18.51;53.54
74594;BME280;63097;51.872;4.460;2023-08-07T08:47:25;101870.25;;;18.29;53.45
74594;BME280;63097;51.872;4.460;2023-08-07T08:49:57;101860.66;;;18.20;54.30
74594;BME280;63097;51.872;4.460;2023-08-07T08:52:25;101881.00;;;18.52;54.41
74594;BME280;63097;51.872;4.460;2023-08-07T08:54:51;101879.31;;;18.56;54.30
74594;BME280;63097;51.872;4.460;2023-08-07T08:57:17;101875.66;;;18.90;52.85
74594;BME280;63097;51.872;4.460;2023-08-07T08:59:42;101875.09;;;18.68;53.13
74594;BME280;63097;51.872;4.460;2023-08-07T09:02:08;101872.56;;;18.77;54.73
74594;BME280;63097;51.872;4.460;2023-08-07T09:04:33;101873.63;;;19.36;53.63
74594;BME280;63097;51.872;4.460;2023-08-07T09:07:00;101880.13;;;19.22;53.36
74594;BME280;63097;51.872;4.460;2023-08-07T09:09:26;101878.16;;;19.07;50.77
74594;BME280;63097;51.872;4.460;2023-08-07T09:11:52;101876.47;;;19.16;51.19
74594;BME280;63097;51.872;4.460;2023-08-07T09:14:22;101882.38;;;19.20;52.08
74594;BME280;63097;51.872;4.460;2023-08-07T09:16:48;101895.91;;;19.38;50.44
74594;BME280;63097;51.872;4.460;2023-08-07T09:19:14;101886.25;;;19.59;49.88
74594;BME280;63097;51.872;4.460;2023-08-07T09:21:40;101887.75;;;19.16;51.59
74594;BME280;63097;51.872;4.460;2023-08-07T09:24:05;101884.97;;;18.91;51.28
74594;BME280;63097;51.872;4.460;2023-08-07T09:26:32;101896.81;;;18.68;54.01
74594;BME280;63097;51.872;4.460;2023-08-07T09:28:57;101890.31;;;18.87;53.38
74594;BME280;63097;51.872;4.460;2023-08-07T09:31:23;101887.16;;;19.29;53.27
74594;BME280;63097;51.872;4.460;2023-08-07T09:33:48;101894.44;;;19.60;51.12
74594;BME280;63097;51.872;4.460;2023-08-07T09:36:14;101887.22;;;19.93;51.22
74594;BME280;63097;51.872;4.460;2023-08-07T09:38:39;101892.91;;;19.88;50.77
74594;BME280;63097;51.872;4.460;2023-08-07T09:41:04;101878.16;;;20.01;50.05
74594;BME280;63097;51.872;4.460;2023-08-07T09:43:34;101894.84;;;20.46;51.22
74594;BME280;63097;51.872;4.460;2023-08-07T09:46:03;101887.53;;;20.45;49.30
74594;BME280;63097;51.872;4.460;2023-08-07T09:48:29;101894.34;;;20.78;48.91
74594;BME280;63097;51.872;4.460;2023-08-07T09:50:58;101887.78;;;21.16;48.42
74594;BME280;63097;51.872;4.460;2023-08-07T09:53:26;101900.88;;;21.36;47.88
74594;BME280;63097;51.872;4.460;2023-08-07T09:55:54;101896.28;;;21.16;48.94
74594;BME280;63097;51.872;4.460;2023-08-07T09:58:20;101910.59;;;21.30;47.91
74594;BME280;63097;51.872;4.460;2023-08-07T10:00:46;101906.38;;;21.51;47.05
74594;BME280;63097;51.872;4.460;2023-08-07T10:03:12;101913.88;;;20.36;49.20
74594;BME280;63097;51.872;4.460;2023-08-07T10:05:38;101923.09;;;19.92;50.05
74594;BME280;63097;51.872;4.460;2023-08-07T10:08:03;101914.94;;;20.45;46.54
74594;BME280;63097;51.872;4.460;2023-08-07T10:10:29;101918.47;;;21.04;46.95
74594;BME280;63097;51.872;4.460;2023-08-07T10:12:54;101916.69;;;21.65;46.58
74594;BME280;63097;51.872;4.460;2023-08-07T10:15:20;101919.25;;;22.51;45.19
74594;BME280;63097;51.872;4.460;2023-08-07T10:17:46;101918.53;;;22.22;43.92
74594;BME280;63097;51.872;4.460;2023-08-07T10:20:12;101915.81;;;21.93;44.09
74594;BME280;63097;51.872;4.460;2023-08-07T10:22:38;101916.91;;;21.45;46.59
74594;BME280;63097;51.872;4.460;2023-08-07T10:25:04;101920.28;;;20.85;48.24
74594;BME280;63097;51.872;4.460;2023-08-07T10:27:33;101928.09;;;21.32;45.55
74594;BME280;63097;51.872;4.460;2023-08-07T10:30:02;101928.94;;;22.08;45.11
74594;BME280;63097;51.872;4.460;2023-08-07T10:32:30;101926.44;;;23.00;43.81
74594;BME280;63097;51.872;4.460;2023-08-07T10:34:55;101909.13;;;22.45;43.58
74594;BME280;63097;51.872;4.460;2023-08-07T10:37:43;101922.03;;;22.38;44.19
74594;BME280;63097;51.872;4.460;2023-08-07T10:40:10;101935.47;;;21.33;45.71
74594;BME280;63097;51.872;4.460;2023-08-07T10:42:51;101935.03;;;21.16;48.66
74594;BME280;63097;51.872;4.460;2023-08-07T10:45:17;101931.53;;;22.65;46.19
74594;BME280;63097;51.872;4.460;2023-08-07T10:47:43;101920.91;;;22.57;44.88
74594;BME280;63097;51.872;4.460;2023-08-07T10:50:09;101914.31;;;23.58;42.74
74594;BME280;63097;51.872;4.460;2023-08-07T10:52:38;101917.97;;;24.54;40.66
74594;BME280;63097;51.872;4.460;2023-08-07T10:55:13;101920.03;;;24.62;40.03
74594;BME280;63097;51.872;4.460;2023-08-07T10:57:39;101930.13;;;24.19;40.93
74594;BME280;63097;51.872;4.460;2023-08-07T11:00:05;101927.28;;;24.05;41.46
74594;BME280;63097;51.872;4.460;2023-08-07T11:02:31;101914.13;;;24.09;40.51
74594;BME280;63097;51.872;4.460;2023-08-07T11:04:56;101929.56;;;24.44;41.12
74594;BME280;63097;51.872;4.460;2023-08-07T11:07:26;101922.53;;;24.63;40.24
74594;BME280;63097;51.872;4.460;2023-08-07T11:09:53;101929.22;;;24.45;42.22
74594;BME280;63097;51.872;4.460;2023-08-07T11:12:19;101933.94;;;25.21;39.67
74594;BME280;63097;51.872;4.460;2023-08-07T11:14:44;101934.00;;;24.36;42.19
74594;BME280;63097;51.872;4.460;2023-08-07T11:17:09;101935.59;;;23.29;44.17
74594;BME280;63097;51.872;4.460;2023-08-07T11:19:35;101931.44;;;22.52;46.75
74594;BME280;63097;51.872;4.460;2023-08-07T11:22:00;101936.44;;;23.75;45.16
74594;BME280;63097;51.872;4.460;2023-08-07T11:24:27;101928.47;;;22.62;47.55
74594;BME280;63097;51.872;4.460;2023-08-07T11:26:53;101930.44;;;22.98;47.33
74594;BME280;63097;51.872;4.460;2023-08-07T11:29:18;101933.34;;;22.19;48.51
74594;BME280;63097;51.872;4.460;2023-08-07T11:31:43;101940.38;;;22.22;48.22
74594;BME280;63097;51.872;4.460;2023-08-07T11:34:10;101934.78;;;23.10;47.92
74594;BME280;63097;51.872;4.460;2023-08-07T11:36:41;101936.50;;;22.92;46.44
74594;BME280;63097;51.872;4.460;2023-08-07T11:39:06;101936.22;;;22.14;50.00
74594;BME280;63097;51.872;4.460;2023-08-07T11:41:32;101926.13;;;21.32;49.97
74594;BME280;63097;51.872;4.460;2023-08-07T11:43:57;101923.03;;;20.61;51.87
74594;BME280;63097;51.872;4.460;2023-08-07T11:46:22;101923.94;;;20.90;52.20
74594;BME280;63097;51.872;4.460;2023-08-07T11:48:48;101942.16;;;20.74;51.57
74594;BME280;63097;51.872;4.460;2023-08-07T11:51:13;101921.25;;;22.69;45.98
74594;BME280;63097;51.872;4.460;2023-08-07T11:53:40;101929.72;;;22.56;46.47
74594;BME280;63097;51.872;4.460;2023-08-07T11:56:08;101930.69;;;21.28;51.19
74594;BME280;63097;51.872;4.460;2023-08-07T11:58:35;101932.38;;;20.95;50.16
74594;BME280;63097;51.872;4.460;2023-08-07T12:01:12;101942.13;;;20.36;52.84
74594;BME280;63097;51.872;4.460;2023-08-07T12:03:40;101928.34;;;19.45;55.64
74594;BME280;63097;51.872;4.460;2023-08-07T12:06:08;101939.66;;;18.85;58.44
74594;BME280;63097;51.872;4.460;2023-08-07T12:08:38;101944.28;;;18.24;61.74
74594;BME280;63097;51.872;4.460;2023-08-07T12:11:05;101942.50;;;17.93;63.25
74594;BME280;63097;51.872;4.460;2023-08-07T12:13:31;101951.59;;;17.58;66.73
74594;BME280;63097;51.872;4.460;2023-08-07T12:15:58;101955.00;;;17.24;69.46
74594;BME280;63097;51.872;4.460;2023-08-07T12:18:24;101953.69;;;16.68;72.28
74594;BME280;63097;51.872;4.460;2023-08-07T12:20:52;101949.69;;;15.89;81.26
74594;BME280;63097;51.872;4.460;2023-08-07T12:23:18;101955.00;;;15.47;88.73
74594;BME280;63097;51.872;4.460;2023-08-07T12:25:45;101954.09;;;15.42;92.11
74594;BME280;63097;51.872;4.460;2023-08-07T12:28:10;101949.63;;;15.46;94.16
74594;BME280;63097;51.872;4.460;2023-08-07T12:30:37;101958.16;;;15.34;93.41
74594;BME280;63097;51.872;4.460;2023-08-07T12:33:02;101951.97;;;15.16;91.53
74594;BME280;63097;51.872;4.460;2023-08-07T12:35:27;101946.50;;;15.42;94.22
74594;BME280;63097;51.872;4.460;2023-08-07T12:37:53;101944.78;;;15.79;91.23
74594;BME280;63097;51.872;4.460;2023-08-07T12:40:18;101940.78;;;15.97;89.10
74594;BME280;63097;51.872;4.460;2023-08-07T12:42:43;101931.97;;;16.58;88.53
74594;BME280;63097;51.872;4.460;2023-08-07T12:45:09;101940.22;;;19.17;75.17
74594;BME280;63097;51.872;4.460;2023-08-07T12:47:34;101924.13;;;18.72;77.61